Time;durP1;ratioP1;P1;durP2;ratioP2;P2;SDS_P1;SDS_P2;PMS_P1;PMS_P2;Temp;Humidity;BMP_temperature;BMP_pressure;BME280_temperature;BME280_humidity;BME280_pressure;Samples;Min_cycle;Max_cycle;Signal;HPM_P1;HPM_P2
2022/10/03 00:02:38;;;;;;;7.77;3.60;;;10.70;99.90;;;;;;5014273;28;20452;-79
2022/10/03 00:05:19;;;;;;;6.03;3.40;;;10.80;99.90;;;;;;5012360;28;20498;-82
2022/10/03 00:08:01;;;;;;;4.87;3.73;;;10.80;99.90;;;;;;5013994;28;20475;-79
2022/10/03 00:10:38;;;;;;;5.40;3.67;;;10.70;99.90;;;;;;5013372;28;20452;-81
2022/10/03 00:13:18;;;;;;;4.60;3.67;;;10.70;99.90;;;;;;5013667;28;20506;-84
2022/10/03 00:15:52;;;;;;;5.67;3.90;;;10.70;99.90;;;;;;5012624;28;20451;-80
2022/10/03 00:18:29;;;;;;;6.83;3.87;;;10.70;99.90;;;;;;5013776;28;20535;-79
2022/10/03 00:21:13;;;;;;;6.50;4.57;;;10.70;99.90;;;;;;5012519;28;20456;-83
2022/10/03 00:23:48;;;;;;;4.10;3.27;;;10.80;99.90;;;;;;5013721;28;20456;-80
2022/10/03 00:26:29;;;;;;;4.53;3.90;;;10.60;99.90;;;;;;5012862;28;20448;-77
2022/10/03 00:29:10;;;;;;;5.73;4.67;;;10.60;99.90;;;;;;5013743;28;20457;-76
2022/10/03 00:31:44;;;;;;;6.63;4.40;;;10.60;99.90;;;;;;5013797;28;20452;-81
2022/10/03 00:34:24;;;;;;;9.53;5.47;;;10.70;99.90;;;;;;5013149;28;20463;-76
2022/10/03 00:37:00;;;;;;;7.20;4.93;;;10.60;99.90;;;;;;5013433;28;20961;-76
2022/10/03 00:39:39;;;;;;;5.00;4.50;;;10.60;99.90;;;;;;5013605;28;20448;-85
2022/10/03 00:42:55;;;;;;;5.83;5.27;;;10.60;99.90;;;;;;5013496;28;20468;-81
2022/10/03 00:45:56;;;;;;;6.60;5.10;;;10.50;99.90;;;;;;5013483;28;20459;-77
2022/10/03 00:48:59;;;;;;;5.50;4.93;;;10.50;99.90;;;;;;4991084;28;20448;-78
2022/10/03 00:51:37;;;;;;;4.87;4.47;;;10.50;99.90;;;;;;5012173;28;20460;-78
2022/10/03 00:54:26;;;;;;;7.30;5.87;;;10.60;99.90;;;;;;5013323;28;20507;-81
2022/10/03 00:57:06;;;;;;;7.90;4.83;;;10.60;99.90;;;;;;5013325;28;20463;-78
2022/10/03 01:00:02;;;;;;;6.23;5.63;;;10.70;99.90;;;;;;5013560;28;20582;-78
2022/10/03 01:02:43;;;;;;;6.70;6.00;;;10.70;99.90;;;;;;5013204;28;20506;-78
2022/10/03 01:05:23;;;;;;;12.50;5.93;;;10.60;99.90;;;;;;5012046;28;20472;-79
2022/10/03 01:08:17;;;;;;;9.23;6.97;;;10.70;99.90;;;;;;5013169;28;20801;-82
2022/10/03 01:10:51;;;;;;;8.13;6.00;;;10.80;99.90;;;;;;4990809;28;20481;-82
2022/10/03 01:13:28;;;;;;;7.57;6.87;;;10.80;99.90;;;;;;5013116;28;20504;-78
2022/10/03 01:16:05;;;;;;;8.17;5.40;;;10.80;99.90;;;;;;5012306;28;20462;-80
2022/10/03 01:18:46;;;;;;;8.50;6.50;;;10.80;99.90;;;;;;4994964;28;20459;-84
2022/10/03 01:21:26;;;;;;;8.90;6.80;;;10.70;99.90;;;;;;5012089;28;20459;-78
2022/10/03 01:24:29;;;;;;;8.80;7.20;;;10.70;99.90;;;;;;5014946;28;20458;-79
2022/10/03 01:27:00;;;;;;;7.67;6.37;;;10.60;99.90;;;;;;5017062;28;20803;-78
2022/10/03 01:32:37;;;;;;;7.50;5.90;;;10.50;99.90;;;;;;5016805;28;20606;-78
2022/10/03 01:35:18;;;;;;;6.57;5.77;;;10.40;99.90;;;;;;5015767;28;20450;-81
2022/10/03 01:37:53;;;;;;;7.47;6.00;;;10.20;99.90;;;;;;5017455;28;20459;-78
2022/10/03 01:40:28;;;;;;;8.17;6.03;;;10.10;99.90;;;;;;5017983;28;20546;-78
2022/10/03 01:43:06;;;;;;;6.23;5.73;;;10.00;99.90;;;;;;5029882;28;20463;-78
2022/10/03 01:45:46;;;;;;;7.17;6.43;;;10.00;99.90;;;;;;5031569;28;20450;-86
2022/10/03 01:48:30;;;;;;;8.70;5.40;;;10.00;99.90;;;;;;5016808;28;20456;-78
2022/10/03 01:51:03;;;;;;;9.40;7.30;;;10.00;99.90;;;;;;5015551;28;20462;-77
2022/10/03 01:53:42;;;;;;;8.90;7.90;;;10.10;99.90;;;;;;5016367;28;20494;-77
2022/10/03 01:56:16;;;;;;;7.70;6.90;;;9.90;99.90;;;;;;5016306;28;20451;-84
2022/10/03 01:58:55;;;;;;;10.30;7.90;;;10.00;99.90;;;;;;5016146;28;20444;-77
2022/10/03 02:01:29;;;;;;;7.20;6.43;;;10.00;99.90;;;;;;5016291;28;20448;-87
2022/10/03 02:04:03;;;;;;;7.40;6.70;;;10.00;99.90;;;;;;5016088;28;20832;-82
2022/10/03 02:06:41;;;;;;;11.20;7.63;;;10.10;99.90;;;;;;5014814;28;20840;-82
2022/10/03 02:09:18;;;;;;;11.07;8.70;;;10.20;99.90;;;;;;5015981;28;20958;-80
2022/10/03 02:12:00;;;;;;;11.80;9.10;;;10.30;99.90;;;;;;5013611;28;20448;-77
2022/10/03 02:14:34;;;;;;;11.93;9.90;;;10.30;99.90;;;;;;5015894;28;20495;-77
2022/10/03 02:17:08;;;;;;;12.20;8.70;;;10.40;99.90;;;;;;5015944;28;20448;-77
2022/10/03 02:19:47;;;;;;;14.97;8.83;;;10.40;99.90;;;;;;5014696;28;20505;-83
2022/10/03 02:22:15;;;;;;;12.83;8.23;;;10.40;99.90;;;;;;5016000;28;20459;-86
2022/10/03 02:24:50;;;;;;;10.00;7.63;;;10.40;99.90;;;;;;5015778;28;20456;-81
2022/10/03 02:27:40;;;;;;;11.37;8.83;;;10.50;99.90;;;;;;5015946;28;20458;-77
2022/10/03 02:30:16;;;;;;;13.50;8.43;;;10.50;99.90;;;;;;5015742;28;20495;-85
2022/10/03 02:33:14;;;;;;;13.00;8.30;;;10.40;99.90;;;;;;5015097;28;20491;-78
2022/10/03 02:36:06;;;;;;;12.30;8.87;;;10.40;99.90;;;;;;5014429;28;20448;-79
2022/10/03 02:38:58;;;;;;;11.10;8.03;;;10.40;99.90;;;;;;4993211;28;20449;-78
2022/10/03 02:41:51;;;;;;;13.47;8.57;;;10.40;99.90;;;;;;5015477;28;20865;-84
2022/10/03 02:44:58;;;;;;;17.77;8.67;;;10.40;99.90;;;;;;5014148;28;20535;-86
2022/10/03 02:47:56;;;;;;;17.77;8.70;;;10.40;99.90;;;;;;5015390;28;20451;-79
2022/10/03 02:50:51;;;;;;;16.60;9.40;;;10.30;99.90;;;;;;5014182;28;20976;-81
2022/10/03 02:53:47;;;;;;;9.30;8.10;;;10.20;99.90;;;;;;5015021;28;20487;-82
2022/10/03 02:56:50;;;;;;;13.87;9.77;;;10.10;99.90;;;;;;5015434;28;20535;-78
2022/10/03 02:59:50;;;;;;;12.80;9.00;;;10.00;99.90;;;;;;5000444;28;20959;-84
2022/10/03 03:02:53;;;;;;;12.40;8.90;;;9.80;99.90;;;;;;5013289;28;20475;-78
2022/10/03 03:05:44;;;;;;;10.17;7.70;;;9.80;99.90;;;;;;5013598;28;20476;-83
2022/10/03 03:08:45;;;;;;;15.07;8.97;;;9.70;99.90;;;;;;5015199;28;20472;-82
2022/10/03 03:11:46;;;;;;;17.60;8.73;;;9.50;99.90;;;;;;5013416;28;20458;-78
2022/10/03 03:14:59;;;;;;;14.77;9.27;;;9.50;99.90;;;;;;5014948;28;20503;-78
2022/10/03 03:17:36;;;;;;;10.27;8.90;;;9.50;99.90;;;;;;5014898;28;20452;-84
2022/10/03 03:20:18;;;;;;;15.17;10.00;;;9.40;99.90;;;;;;5013824;28;20448;-86
2022/10/03 03:23:09;;;;;;;16.97;10.30;;;9.30;99.90;;;;;;5014844;28;20456;-77
2022/10/03 03:25:59;;;;;;;11.63;7.90;;;9.30;99.90;;;;;;5014724;28;20452;-85
2022/10/03 03:28:35;;;;;;;12.80;8.80;;;9.20;99.90;;;;;;5014955;28;20456;-79
2022/10/03 03:31:10;;;;;;;13.10;8.53;;;9.10;99.90;;;;;;5014910;28;20463;-83
2022/10/03 03:33:51;;;;;;;9.43;7.20;;;9.00;99.90;;;;;;5014612;28;20492;-80
2022/10/03 03:36:27;;;;;;;10.87;7.60;;;8.90;99.90;;;;;;5013579;28;20448;-79
2022/10/03 03:39:02;;;;;;;13.40;7.60;;;8.60;99.90;;;;;;5014690;28;20818;-81
2022/10/03 03:41:49;;;;;;;10.47;8.10;;;8.80;99.90;;;;;;5014600;28;20444;-77
2022/10/03 03:44:37;;;;;;;9.13;7.50;;;8.70;99.90;;;;;;5014142;28;20878;-77
2022/10/03 03:47:16;;;;;;;9.57;7.63;;;8.60;99.90;;;;;;5014594;28;20452;-83
2022/10/03 03:49:58;;;;;;;9.40;6.80;;;8.60;99.90;;;;;;5013443;28;20456;-77
2022/10/03 03:52:38;;;;;;;6.90;6.07;;;8.50;99.90;;;;;;5014700;28;20455;-81
2022/10/03 03:55:32;;;;;;;9.43;7.53;;;8.60;99.90;;;;;;5014454;28;20928;-83
2022/10/03 03:58:25;;;;;;;10.30;7.20;;;8.60;99.90;;;;;;5014438;28;20460;-77
2022/10/03 04:01:14;;;;;;;9.73;7.77;;;8.70;99.90;;;;;;5005236;28;20971;-80
2022/10/03 04:03:50;;;;;;;9.30;7.43;;;8.70;99.90;;;;;;5014724;28;20448;-78
2022/10/03 04:06:35;;;;;;;10.77;8.07;;;8.80;99.90;;;;;;5013635;28;20575;-81
2022/10/03 04:09:34;;;;;;;9.80;7.67;;;8.80;99.90;;;;;;5015461;28;20793;-80
2022/10/03 04:12:14;;;;;;;9.33;7.93;;;8.80;99.90;;;;;;5010178;28;20453;-77
2022/10/03 04:14:56;;;;;;;10.90;7.47;;;8.80;99.90;;;;;;5026280;28;20502;-89
2022/10/03 04:21:10;;;;;;;10.30;8.33;;;9.00;99.90;;;;;;5013091;28;20632;-76
2022/10/03 04:23:52;;;;;;;13.70;8.40;;;8.90;99.90;;;;;;5013640;28;20467;-82
2022/10/03 04:26:35;;;;;;;9.33;7.90;;;9.00;99.90;;;;;;5013717;28;20456;-77
2022/10/03 04:29:30;;;;;;;19.90;7.00;;;9.00;99.90;;;;;;5010934;28;20951;-81
2022/10/03 04:32:08;;;;;;;10.80;8.17;;;9.00;99.90;;;;;;5013471;28;20459;-78
2022/10/03 04:34:45;;;;;;;9.70;8.70;;;9.00;99.90;;;;;;5012056;28;20499;-77
2022/10/03 04:37:23;;;;;;;9.57;7.43;;;9.00;99.90;;;;;;5013631;28;20447;-77
2022/10/03 04:40:03;;;;;;;11.50;7.00;;;9.00;99.90;;;;;;5013372;28;20471;-79
2022/10/03 04:42:43;;;;;;;9.73;7.30;;;9.00;99.90;;;;;;5013669;28;20455;-86
2022/10/03 04:45:38;;;;;;;10.07;7.13;;;9.00;99.90;;;;;;5013535;28;20448;-86
2022/10/03 04:48:16;;;;;;;8.37;6.83;;;8.90;99.90;;;;;;5012407;28;20580;-78
2022/10/03 04:50:56;;;;;;;10.53;6.93;;;8.90;99.90;;;;;;5012270;28;20452;-82
2022/10/03 04:53:37;;;;;;;9.20;6.47;;;8.90;99.90;;;;;;5013417;28;20541;-82
2022/10/03 04:56:21;;;;;;;12.03;6.47;;;8.90;99.90;;;;;;5013065;28;20479;-78
2022/10/03 04:58:55;;;;;;;14.97;7.50;;;9.00;99.90;;;;;;5013219;28;20456;-78
2022/10/03 05:01:31;;;;;;;15.27;8.80;;;9.00;99.90;;;;;;5013242;28;20444;-84
2022/10/03 05:04:09;;;;;;;14.00;8.90;;;9.20;99.90;;;;;;5013147;28;20547;-84
2022/10/03 05:06:47;;;;;;;15.40;9.33;;;9.40;99.90;;;;;;5011975;28;20491;-79
2022/10/03 05:09:31;;;;;;;15.80;8.93;;;9.40;99.90;;;;;;5013189;28;21056;-79
2022/10/03 05:12:07;;;;;;;14.20;9.53;;;9.30;99.90;;;;;;5013145;28;20460;-78
2022/10/03 05:14:58;;;;;;;15.17;9.23;;;9.40;99.90;;;;;;5012474;28;21022;-77
2022/10/03 05:17:38;;;;;;;14.63;9.67;;;9.40;99.90;;;;;;5011448;28;20813;-79
2022/10/03 05:20:22;;;;;;;11.53;8.67;;;9.40;99.90;;;;;;5011858;28;20445;-82
2022/10/03 05:22:59;;;;;;;16.70;9.20;;;9.50;99.90;;;;;;5012617;28;20484;-84
2022/10/03 05:25:40;;;;;;;16.30;10.67;;;9.60;99.90;;;;;;5013174;28;20455;-76
2022/10/03 05:28:17;;;;;;;14.43;10.00;;;9.60;99.90;;;;;;5013043;28;20956;-81
2022/10/03 05:30:53;;;;;;;14.97;10.13;;;9.60;99.90;;;;;;5013034;28;20452;-80
2022/10/03 05:33:34;;;;;;;14.40;10.40;;;9.60;99.90;;;;;;5012881;28;20452;-78
2022/10/03 05:36:26;;;;;;;18.83;10.73;;;9.70;99.90;;;;;;5011642;28;20940;-79
2022/10/03 05:39:25;;;;;;;21.80;12.23;;;9.70;99.90;;;;;;5013059;28;20992;-84
2022/10/03 05:41:54;;;;;;;19.90;11.73;;;9.90;99.90;;;;;;5013450;28;20444;-76
2022/10/03 05:44:38;;;;;;;22.57;12.73;;;10.90;99.90;;;;;;5016960;28;20459;-75
2022/10/03 05:47:43;;;;;;;26.17;11.77;;;10.10;99.90;;;;;;5015113;28;20452;-82
2022/10/03 05:50:27;;;;;;;25.77;13.10;;;10.10;99.90;;;;;;5013067;28;20456;-80
2022/10/03 05:53:02;;;;;;;22.80;13.00;;;10.10;99.90;;;;;;5013301;28;20551;-80
2022/10/03 05:55:36;;;;;;;27.50;14.37;;;10.10;99.90;;;;;;5013823;28;20518;-80
2022/10/03 05:58:36;;;;;;;33.93;14.73;;;10.20;99.90;;;;;;5014681;28;20459;-80
2022/10/03 06:01:30;;;;;;;40.47;15.37;;;10.20;99.90;;;;;;5011161;28;20471;-80
2022/10/03 06:04:12;;;;;;;30.60;14.60;;;10.10;99.90;;;;;;5012639;28;20456;-80
2022/10/03 06:06:53;;;;;;;26.90;14.00;;;10.20;99.90;;;;;;5011596;28;20802;-79
2022/10/03 06:09:56;;;;;;;30.30;14.33;;;10.20;99.90;;;;;;5012439;28;20444;-80
2022/10/03 06:12:32;;;;;;;26.17;13.83;;;10.20;99.90;;;;;;5016111;28;20535;-80
2022/10/03 06:15:22;;;;;;;36.87;15.23;;;10.30;99.90;;;;;;5016042;28;20487;-80
2022/10/03 06:17:58;;;;;;;35.10;15.60;;;10.30;99.90;;;;;;5016319;28;20819;-80
2022/10/03 06:21:04;;;;;;;42.30;16.67;;;10.20;99.90;;;;;;5014924;28;20943;-80
2022/10/03 06:23:46;;;;;;;27.97;15.57;;;;;;;;;;5015987;28;20539;-83
2022/10/03 06:26:45;;;;;;;27.03;16.37;;;10.20;99.90;;;;;;5016047;28;20456;-80
2022/10/03 06:29:46;;;;;;;26.87;15.87;;;10.30;99.90;;;;;;5016108;28;20818;-80
2022/10/03 06:32:47;;;;;;;30.97;16.03;;;10.30;99.90;;;;;;5016042;28;20474;-81
2022/10/03 06:35:56;;;;;;;30.80;15.73;;;10.30;99.90;;;;;;5013658;28;20503;-81
2022/10/03 06:38:55;;;;;;;36.27;17.50;;;10.40;99.90;;;;;;5017224;28;20464;-81
2022/10/03 06:41:59;;;;;;;24.17;15.40;;;10.40;99.90;;;;;;5034964;28;20443;-81
2022/10/03 06:44:55;;;;;;;30.07;15.47;;;10.50;99.90;;;;;;5028013;28;20861;-81
2022/10/03 06:47:42;;;;;;;31.63;16.60;;;10.70;99.90;;;;;;5015921;28;20479;-82
2022/10/03 06:50:29;;;;;;;29.00;16.23;;;10.50;99.90;;;;;;5014918;28;20448;-82
2022/10/03 06:53:38;;;;;;;29.33;15.47;;;10.50;99.90;;;;;;5015456;28;20452;-81
2022/10/03 06:56:25;;;;;;;21.03;12.73;;;10.50;99.90;;;;;;5016123;28;20445;-81
2022/10/03 06:59:18;;;;;;;21.20;13.10;;;10.40;99.90;;;;;;5015724;28;20448;-82
2022/10/03 07:02:41;;;;;;;31.50;14.00;;;10.60;99.90;;;;;;5015546;28;20448;-82
2022/10/03 07:05:59;;;;;;;25.97;13.93;;;10.60;99.90;;;;;;5013900;28;20480;-81
2022/10/03 07:09:01;;;;;;;26.13;13.20;;;10.60;99.90;;;;;;5015301;28;20978;-82
2022/10/03 07:11:44;;;;;;;20.60;13.07;;;10.40;99.90;;;;;;4970945;28;20439;-82
2022/10/03 07:14:54;;;;;;;18.23;13.27;;;10.40;99.90;;;;;;5014532;28;20475;-82
2022/10/03 07:17:42;;;;;;;23.83;13.50;;;10.40;99.90;;;;;;5014915;28;20913;-82
2022/10/03 07:20:26;;;;;;;22.67;16.20;;;10.50;99.90;;;;;;5013817;28;20460;-81
2022/10/03 07:23:32;;;;;;;31.17;13.57;;;10.50;99.90;;;;;;5014758;28;20448;-84
2022/10/03 07:26:30;;;;;;;22.47;14.20;;;10.50;99.90;;;;;;5015105;28;20444;-84
2022/10/03 07:29:13;;;;;;;20.63;14.17;;;10.60;99.90;;;;;;5014613;28;20515;-81
2022/10/03 07:31:59;;;;;;;23.03;14.60;;;10.60;99.90;;;;;;5014577;28;20464;-82
2022/10/03 07:35:06;;;;;;;21.43;13.77;;;10.50;99.90;;;;;;5013125;28;20499;-82
2022/10/03 07:41:17;;;;;;;23.13;12.70;;;10.50;99.90;;;;;;5014549;28;20439;-82
2022/10/03 07:44:14;;;;;;;20.03;13.77;;;10.50;99.90;;;;;;4997031;28;20455;-83
2022/10/03 07:47:38;;;;;;;24.57;14.80;;;10.50;99.90;;;;;;5014231;28;20856;-84
2022/10/03 07:50:40;;;;;;;28.00;14.27;;;10.60;99.90;;;;;;5012880;28;20448;-79
2022/10/03 07:53:24;;;;;;;19.83;13.00;;;10.60;99.90;;;;;;5007357;28;20464;-80
2022/10/03 07:56:01;;;;;;;22.50;14.47;;;10.70;99.90;;;;;;5013977;28;20500;-80
2022/10/03 07:58:51;;;;;;;18.70;13.50;;;10.80;99.90;;;;;;5014199;28;20456;-81
2022/10/03 08:01:53;;;;;;;26.70;13.13;;;10.80;99.90;;;;;;5014167;28;20467;-83
2022/10/03 08:04:49;;;;;;;29.00;15.20;;;10.70;99.90;;;;;;4997815;28;20462;-86
2022/10/03 08:07:36;;;;;;;22.87;13.60;;;10.80;99.90;;;;;;4988811;28;20460;-83
2022/10/03 08:10:28;;;;;;;18.70;13.10;;;10.70;99.90;;;;;;5013315;28;20447;-83
2022/10/03 08:13:18;;;;;;;18.33;12.37;;;10.60;99.90;;;;;;5015686;28;20850;-84
2022/10/03 08:16:01;;;;;;;23.53;14.93;;;10.80;99.90;;;;;;5016560;28;20506;-84
2022/10/03 08:18:56;;;;;;;22.20;14.07;;;10.80;99.90;;;;;;5015713;28;20448;-85
2022/10/03 08:21:31;;;;;;;17.73;11.80;;;10.70;99.90;;;;;;5013461;28;20453;-87
2022/10/03 08:24:37;;;;;;;23.27;13.73;;;10.90;99.90;;;;;;5014868;28;20555;-83
2022/10/03 08:27:25;;;;;;;15.23;12.40;;;11.10;99.90;;;;;;5006664;28;20459;-82
2022/10/03 08:30:06;;;;;;;23.73;14.20;;;11.20;99.90;;;;;;5010778;28;20453;-83
2022/10/03 08:33:17;;;;;;;20.40;13.03;;;11.20;99.90;;;;;;5013013;28;20456;-83
2022/10/03 08:36:14;;;;;;;18.10;11.50;;;11.20;99.90;;;;;;5012164;28;20499;-84
2022/10/03 08:38:57;;;;;;;19.10;11.90;;;11.00;99.90;;;;;;5013197;28;20975;-83
2022/10/03 08:42:03;;;;;;;18.23;11.47;;;11.20;99.90;;;;;;5013080;28;20475;-83
2022/10/03 08:45:06;;;;;;;13.43;9.73;;;11.10;99.90;;;;;;5013122;28;20462;-82
2022/10/03 08:48:07;;;;;;;13.60;8.77;;;11.00;99.90;;;;;;5013135;28;20956;-86
2022/10/03 08:51:00;;;;;;;17.93;9.13;;;10.80;99.90;;;;;;5011916;28;20826;-83
2022/10/03 08:54:09;;;;;;;16.53;10.23;;;11.00;99.90;;;;;;5010653;28;20461;-83
2022/10/03 08:56:56;;;;;;;16.63;10.80;;;11.50;99.90;;;;;;5007802;28;20456;-84
2022/10/03 08:59:52;;;;;;;12.23;9.40;;;12.20;99.90;;;;;;5012697;28;20440;-84
2022/10/03 09:02:54;;;;;;;15.30;7.20;;;12.30;99.90;;;;;;5013091;28;20459;-81
2022/10/03 09:05:57;;;;;;;14.20;7.97;;;12.20;99.90;;;;;;5009783;28;20890;-85
2022/10/03 09:09:05;;;;;;;12.67;8.20;;;12.10;99.90;;;;;;5009420;28;20440;-83
2022/10/03 09:11:45;;;;;;;11.03;7.87;;;12.20;99.90;;;;;;4994451;28;20448;-83
2022/10/03 09:14:48;;;;;;;13.33;8.30;;;12.10;99.90;;;;;;5010215;28;20456;-82
2022/10/03 09:17:33;;;;;;;15.70;9.60;;;12.10;99.90;;;;;;5012966;28;20456;-83
2022/10/03 09:20:39;;;;;;;14.00;9.20;;;12.00;99.90;;;;;;5008859;28;20447;-84
2022/10/03 09:23:39;;;;;;;18.50;9.53;;;11.90;99.90;;;;;;5006085;28;20452;-85
2022/10/03 09:26:28;;;;;;;9.80;8.50;;;12.00;99.90;;;;;;4997895;28;20474;-82
2022/10/03 09:29:27;;;;;;;15.50;10.30;;;12.10;99.90;;;;;;5012741;28;20464;-84
2022/10/03 09:32:26;;;;;;;18.20;10.07;;;12.10;99.90;;;;;;5011902;28;20456;-82
2022/10/03 09:35:44;;;;;;;15.33;10.27;;;12.10;99.90;;;;;;5011515;28;20488;-82
2022/10/03 09:38:39;;;;;;;18.80;10.23;;;12.00;99.90;;;;;;4971359;28;20537;-82
2022/10/03 09:41:40;;;;;;;13.47;9.27;;;12.00;99.90;;;;;;4969089;28;20990;-83
2022/10/03 09:44:51;;;;;;;12.10;8.83;;;12.10;99.90;;;;;;4979325;28;20456;-83
2022/10/03 09:47:46;;;;;;;12.77;9.83;;;12.50;99.90;;;;;;5005246;28;20466;-83
2022/10/03 09:50:55;;;;;;;12.93;8.80;;;13.50;99.90;;;;;;5015258;28;20452;-82
2022/10/03 09:54:09;;;;;;;9.70;8.23;;;14.80;99.90;;;;;;4999098;28;20971;-81
2022/10/03 09:57:04;;;;;;;10.10;8.00;;;16.60;99.90;;;;;;5016226;28;21008;-84
2022/10/03 09:59:52;;;;;;;9.23;7.03;;;14.90;99.90;;;;;;5016124;28;20471;-80
2022/10/03 10:02:46;;;;;;;12.27;6.80;;;13.80;99.90;;;;;;5016143;28;20444;-81
2022/10/03 10:05:46;;;;;;;14.33;7.20;;;13.60;99.90;;;;;;5014528;28;20983;-80
2022/10/03 10:08:50;;;;;;;14.53;7.67;;;12.70;99.90;;;;;;5016229;28;20459;-82
2022/10/03 10:11:32;;;;;;;15.80;8.20;;;12.70;99.90;;;;;;5016112;28;20450;-82
2022/10/03 10:14:28;;;;;;;10.27;6.70;;;12.60;99.90;;;;;;5015731;28;20440;-81
2022/10/03 10:17:39;;;;;;;10.87;7.00;;;12.60;99.90;;;;;;5015855;28;20444;-82
2022/10/03 10:20:21;;;;;;;10.60;6.83;;;12.70;99.90;;;;;;5014245;28;20955;-81
2022/10/03 10:23:36;;;;;;;10.00;7.60;;;12.70;99.90;;;;;;5015798;28;20451;-80
2022/10/03 10:26:54;;;;;;;18.73;8.63;;;12.80;99.90;;;;;;4985110;28;20472;-79
2022/10/03 10:29:41;;;;;;;11.70;7.50;;;12.80;99.90;;;;;;4955079;28;20466;-79
2022/10/03 10:32:41;;;;;;;15.70;8.60;;;12.90;99.90;;;;;;5009501;28;20464;-79
2022/10/03 10:35:34;;;;;;;11.03;8.13;;;13.20;99.90;;;;;;4989433;28;20981;-80
2022/10/03 10:38:25;;;;;;;13.07;8.70;;;14.00;99.90;;;;;;5015429;28;20469;-79
2022/10/03 10:41:27;;;;;;;12.53;8.80;;;14.00;99.90;;;;;;5015470;28;20448;-79
2022/10/03 10:44:32;;;;;;;9.90;6.67;;;14.10;99.90;;;;;;5015508;28;20447;-79
2022/10/03 10:47:12;;;;;;;17.80;7.80;;;14.00;99.90;;;;;;5015304;28;20467;-80
2022/10/03 10:50:11;;;;;;;12.53;6.87;;;14.20;99.90;;;;;;5012080;28;20542;-79
2022/10/03 10:53:20;;;;;;;12.83;7.00;;;14.20;99.90;;;;;;4995513;28;20438;-82
2022/10/03 10:56:20;;;;;;;11.80;7.60;;;14.20;99.90;;;;;;4994913;28;20501;-81
2022/10/03 10:59:38;;;;;;;9.70;6.40;;;14.00;99.90;;;;;;4994410;28;20449;-82
2022/10/03 11:02:43;;;;;;;9.53;7.60;;;14.00;99.90;;;;;;4995251;28;20445;-82
2022/10/03 11:05:42;;;;;;;8.30;7.10;;;14.70;99.90;;;;;;4993953;28;20489;-82
2022/10/03 11:09:03;;;;;;;12.07;7.87;;;16.40;99.90;;;;;;4995240;28;21019;-81
2022/10/03 11:12:08;;;;;;;7.90;6.90;;;17.10;99.90;;;;;;4916241;29;20456;-84
2022/10/03 11:15:17;;;;;;;12.43;6.67;;;18.00;99.90;;;;;;4910129;29;20468;-80
2022/10/03 11:18:20;;;;;;;9.70;6.30;;;17.90;99.90;;;;;;4994374;28;20460;-82
2022/10/03 11:21:20;;;;;;;7.63;5.60;;;15.80;99.90;;;;;;4994077;28;20449;-88
2022/10/03 11:24:19;;;;;;;9.93;5.80;;;15.00;99.90;;;;;;4978596;28;20471;-83
2022/10/03 11:27:23;;;;;;;13.03;6.67;;;14.70;99.90;;;;;;4995149;28;20445;-80
2022/10/03 11:30:43;;;;;;;8.33;6.57;;;14.70;99.90;;;;;;4995374;28;20453;-83
2022/10/03 11:33:49;;;;;;;10.40;6.23;;;14.80;99.90;;;;;;4994945;28;20462;-82
2022/10/03 11:36:57;;;;;;;12.30;7.07;;;14.20;99.90;;;;;;4964378;28;20492;-80
2022/10/03 11:39:34;;;;;;;6.30;5.70;;;14.20;99.90;;;;;;4995026;28;20915;-80
2022/10/03 11:42:11;;;;;;;8.10;5.50;;;14.30;99.90;;;;;;4994920;28;20453;-82
2022/10/03 11:44:46;;;;;;;8.40;5.97;;;14.50;99.90;;;;;;4994731;28;20499;-82
2022/10/03 11:47:39;;;;;;;8.33;5.97;;;14.50;99.90;;;;;;4994246;28;20503;-82
2022/10/03 11:50:29;;;;;;;11.53;5.97;;;14.40;99.90;;;;;;4993337;28;20831;-81
2022/10/03 11:53:23;;;;;;;11.73;5.27;;;14.50;99.90;;;;;;4994477;28;20536;-82
2022/10/03 11:55:58;;;;;;;12.80;6.20;;;14.40;99.90;;;;;;4991319;28;20488;-86
2022/10/03 11:58:38;;;;;;;9.77;5.37;;;14.20;99.90;;;;;;4994330;28;20484;-80
2022/10/03 12:01:30;;;;;;;8.80;4.93;;;14.40;99.90;;;;;;4994399;28;20448;-81
2022/10/03 12:04:10;;;;;;;9.20;5.17;;;14.40;99.90;;;;;;4990597;28;20457;-83
2022/10/03 12:09:55;;;;;;;12.40;4.47;;;15.20;99.90;;;;;;4993847;28;20456;-81
2022/10/03 12:12:29;;;;;;;9.37;4.13;;;16.40;99.90;;;;;;4994369;28;20797;-88
2022/10/03 12:15:03;;;;;;;5.83;3.50;;;17.40;99.90;;;;;;4994021;28;20459;-82
2022/10/03 12:17:34;;;;;;;7.67;3.50;;;17.90;99.90;;;;;;4994113;28;20458;-88
2022/10/03 12:20:14;;;;;;;6.23;3.63;;;18.00;99.20;;;;;;4993021;28;20449;-82
2022/10/03 12:22:48;;;;;;;6.47;3.20;;;18.70;97.60;;;;;;4994108;28;20535;-85
2022/10/03 12:25:20;;;;;;;6.80;3.50;;;19.40;99.10;;;;;;4994007;28;20452;-83
2022/10/03 12:28:11;;;;;;;7.27;3.77;;;18.80;95.80;;;;;;4993899;28;20449;-85
2022/10/03 12:30:42;;;;;;;5.87;3.47;;;18.40;99.90;;;;;;4993738;28;20445;-84
2022/10/03 12:33:32;;;;;;;5.70;3.30;;;18.60;98.50;;;;;;4993825;28;20821;-82
2022/10/03 12:36:09;;;;;;;13.90;4.90;;;18.80;99.10;;;;;;4992214;28;20511;-81
2022/10/03 12:38:50;;;;;;;5.50;3.30;;;19.60;99.00;;;;;;4993602;28;20461;-81
2022/10/03 12:41:30;;;;;;;4.00;3.03;;;19.20;96.80;;;;;;4993700;28;20484;-80
2022/10/03 12:44:14;;;;;;;3.90;2.93;;;17.50;99.90;;;;;;4993741;28;20452;-82
2022/10/03 12:46:49;;;;;;;8.20;3.70;;;17.40;99.90;;;;;;5006400;28;20452;-81
2022/10/03 12:49:20;;;;;;;6.57;3.80;;;17.20;99.90;;;;;;5012072;28;20463;-81
2022/10/03 12:51:54;;;;;;;8.13;4.20;;;17.00;99.90;;;;;;5012836;28;20441;-80
2022/10/03 12:54:46;;;;;;;6.57;3.50;;;16.40;99.90;;;;;;5013152;28;20819;-80
2022/10/03 12:57:48;;;;;;;9.47;3.73;;;16.70;99.90;;;;;;5012966;28;20500;-82
2022/10/03 13:00:20;;;;;;;5.97;3.80;;;17.50;98.50;;;;;;5013065;28;20444;-82
2022/10/03 13:03:02;;;;;;;9.00;4.07;;;18.10;98.60;;;;;;5011500;28;20787;-83
2022/10/03 13:05:43;;;;;;;11.30;3.73;;;17.20;99.00;;;;;;5011569;28;20484;-83
2022/10/03 13:08:29;;;;;;;5.10;3.60;;;18.10;99.90;;;;;;5013040;28;20464;-80
2022/10/03 13:11:02;;;;;;;5.73;3.50;;;19.00;99.40;;;;;;5012966;28;20456;-82
2022/10/03 13:13:32;;;;;;;5.63;3.03;;;18.70;95.70;;;;;;4993143;28;20454;-82
2022/10/03 13:16:24;;;;;;;6.13;3.97;;;17.80;98.20;;;;;;4989558;28;20525;-80
2022/10/03 13:19:00;;;;;;;6.13;3.60;;;17.90;93.60;;;;;;4982402;28;20460;-83
2022/10/03 13:21:44;;;;;;;5.17;3.83;;;17.60;98.40;;;;;;4993047;28;20516;-82
2022/10/03 13:24:23;;;;;;;7.37;3.67;;;17.00;99.80;;;;;;4997335;28;20453;-81
2022/10/03 13:26:59;;;;;;;7.77;3.93;;;16.70;99.90;;;;;;4997121;28;20456;-83
2022/10/03 13:29:30;;;;;;;9.73;3.77;;;16.40;99.90;;;;;;4997146;28;20449;-85
2022/10/03 13:32:15;;;;;;;6.70;4.13;;;16.20;99.90;;;;;;4997290;28;20449;-84
2022/10/03 13:35:57;;;;;;;8.20;3.20;;;16.00;99.90;;;;;;4996066;28;20544;-85
2022/10/03 13:38:15;;;;;;;9.93;3.90;;;16.10;99.90;;;;;;4996928;28;20550;-85
2022/10/03 13:40:48;;;;;;;7.10;3.70;;;15.90;99.90;;;;;;4997095;28;20445;-87
2022/10/03 13:43:21;;;;;;;7.00;3.30;;;16.00;99.90;;;;;;4997121;28;20461;-81
2022/10/03 13:45:50;;;;;;;5.93;3.50;;;15.70;99.90;;;;;;4998257;28;20465;-82
2022/10/03 13:48:21;;;;;;;5.60;3.20;;;15.60;99.90;;;;;;4997010;28;20464;-82
2022/10/03 13:50:55;;;;;;;4.30;3.60;;;15.70;99.90;;;;;;4995726;28;20453;-79
2022/10/03 13:53:35;;;;;;;9.60;4.93;;;15.30;99.90;;;;;;4996490;28;20464;-82
2022/10/03 13:56:10;;;;;;;5.60;3.40;;;15.50;99.90;;;;;;4994562;28;20535;-82
2022/10/03 13:58:47;;;;;;;7.30;3.60;;;15.60;99.90;;;;;;4996721;28;20480;-83
2022/10/03 14:01:34;;;;;;;5.53;3.83;;;15.90;99.90;;;;;;4993970;28;20503;-83
2022/10/03 14:04:25;;;;;;;6.63;3.50;;;16.10;99.90;;;;;;4996437;28;20460;-83
2022/10/03 14:06:57;;;;;;;6.03;2.90;;;16.80;99.90;;;;;;4994143;28;20563;-82
2022/10/03 14:09:59;;;;;;;8.33;3.67;;;17.40;99.60;;;;;;4996431;28;20445;-83
2022/10/03 14:12:38;;;;;;;5.87;3.33;;;17.80;99.90;;;;;;5007362;28;20499;-83
2022/10/03 14:15:16;;;;;;;6.10;3.90;;;18.20;99.70;;;;;;5016607;28;20460;-91
2022/10/03 14:17:52;;;;;;;10.93;3.83;;;17.90;99.80;;;;;;5011742;28;20578;-82
2022/10/03 14:20:27;;;;;;;4.07;2.97;;;17.60;98.50;;;;;;5014562;28;20491;-83
2022/10/03 14:23:09;;;;;;;6.17;3.33;;;17.90;98.50;;;;;;5014597;28;20452;-84
2022/10/03 14:25:44;;;;;;;7.63;3.47;;;18.00;99.00;;;;;;5015215;28;20474;-82
2022/10/03 14:28:19;;;;;;;5.93;3.17;;;18.00;98.80;;;;;;5013081;28;20848;-84
2022/10/03 14:30:56;;;;;;;7.27;3.63;;;18.00;98.50;;;;;;5014442;28;20452;-83
2022/10/03 14:33:34;;;;;;;4.87;3.50;;;18.30;98.10;;;;;;5012275;28;20448;-85
2022/10/03 14:36:21;;;;;;;5.90;2.87;;;18.80;98.20;;;;;;5013110;28;20579;-84
2022/10/03 14:39:14;;;;;;;7.03;2.83;;;18.90;97.50;;;;;;4995786;28;20497;-83
2022/10/03 14:41:46;;;;;;;4.07;3.67;;;18.00;97.70;;;;;;4989318;28;20967;-86